Route Details

Aircraft Information
Group: North America Fleet
Types: B738, B752, B762, B763
Route Data
Distance: 828nm
Duration: 2h 39m
Origin METAR: KABE 171051Z 05004KT 10SM CLR 16/13 A3004 RMK AO2 SLP169 T01560128
Dest. METAR: KLAL 170515Z AUTO 00000KT 10SM CLR 24/23 A2993 RMK AO2 T02370234
Freight Data
(for Aug 18, 2022)
Load Factor:
43%
Manifested Cargo: 41,718lbs
Financial History
Total Freight: 68,610lbs
Average Load: 0lbs/flt
Fuel Used: 22,736lbs
Avg. Fuel Used: 0lbs/flt
Fuel Expense: $12,505
Avg. Fuel Expense: $0
Avg. Fuel Cost: $0/lbs
Total Gross Income: $174,956
Pilot Pay: $239
Total Expenses: $33,961
Total Revenue: $127,608
Average Revenue: $0

Capitol Logistics 336




KABE
Lehigh Valley International Airport
Allentown, Pennsylvania
KLAL
Lakeland Linder Regional Airport
Lakeland, Florida

Activity Log

Date Flight Route Aircraft Duration
08/14/2022 CPX336 DCT STOEN Q75 SLOJO Q103 PUPYY DCT KYYUU LUBBR3 B763 2h 16m